createdAt,value
2018-01-02T10:19:08.027Z,91.47
2018-01-02T10:20:07.948Z,90.99
2018-01-02T10:21:08.197Z,91.18
2018-01-02T10:22:08.170Z,90.99
2018-01-02T10:23:08.362Z,90.70
2018-01-02T10:24:07.775Z,90.89
2018-01-02T10:25:07.776Z,90.61
2018-01-02T10:26:07.781Z,90.61
2018-01-02T10:27:07.777Z,90.52
2018-01-02T10:28:07.775Z,91.47
2018-01-02T10:29:07.778Z,91.18
2018-01-02T10:30:07.794Z,90.61
2018-01-02T10:31:07.838Z,91.13
2018-01-02T10:32:07.810Z,91.03
2018-01-02T10:33:07.808Z,90.94
2018-01-02T10:34:07.819Z,91.13
2018-01-02T10:35:07.795Z,90.56
2018-01-02T10:36:07.822Z,90.28
2018-01-02T10:37:07.798Z,90.56
2018-01-02T10:38:08.023Z,90.47
2018-01-02T10:39:07.813Z,90.66
2018-01-02T10:40:07.786Z,90.18
2018-01-02T10:41:07.814Z,89.61
2018-01-02T10:42:07.832Z,90.56
2018-01-02T10:43:08.235Z,90.75
2018-01-02T10:44:07.845Z,91.22
2018-01-02T10:45:07.830Z,90.18
2018-01-02T10:46:07.851Z,89.70
2018-01-02T10:47:07.803Z,89.32
2018-01-02T10:48:07.968Z,89.70
2018-01-02T10:49:07.795Z,89.70
2018-01-02T10:50:07.789Z,89.32
2018-01-02T10:51:08.047Z,90.66
2018-01-02T10:52:08.715Z,89.70
2018-01-02T10:53:18.569Z,89.89
2018-01-02T10:54:07.834Z,88.94
2018-01-02T10:55:07.804Z,88.75
2018-01-02T10:56:09.499Z,89.32
2018-01-02T10:57:11.767Z,89.14
2018-01-02T10:58:07.906Z,88.75
2018-01-02T10:59:07.969Z,89.42
2018-01-02T11:00:07.884Z,88.28
2018-01-02T11:01:07.893Z,87.99
2018-01-02T11:02:07.838Z,88.56
2018-01-02T11:03:07.816Z,88.09
2018-01-02T11:04:08.372Z,88.18
2018-01-02T11:05:10.961Z,88.28
2018-01-02T11:06:07.843Z,88.46
2018-01-02T11:07:07.841Z,88.56
2018-01-02T11:08:07.830Z,88.75
2018-01-02T11:09:07.826Z,88.85
2018-01-02T11:10:07.832Z,88.94
2018-01-02T11:11:07.888Z,88.85
2018-01-02T11:12:07.851Z,88.56
2018-01-02T11:13:07.826Z,88.56
2018-01-02T11:14:07.839Z,88.18
2018-01-02T11:15:08.376Z,87.61
2018-01-02T11:16:08.030Z,87.52
2018-01-02T11:17:07.831Z,87.32
2018-01-02T11:18:07.892Z,87.90
2018-01-02T11:19:07.880Z,87.99
2018-01-02T11:20:07.854Z,87.61
2018-01-02T11:21:07.960Z,87.42
2018-01-02T11:22:09.422Z,87.32
2018-01-02T11:23:08.049Z,87.32
2018-01-02T11:24:07.917Z,88.09
2018-01-02T11:25:08.876Z,87.04
2018-01-02T11:26:08.021Z,87.32
2018-01-02T11:27:07.971Z,87.23
2018-01-02T11:28:11.681Z,87.23
2018-01-02T11:29:11.310Z,87.13
2018-01-02T11:30:09.935Z,86.57
2018-01-02T11:31:08.122Z,85.99
2018-01-02T11:32:08.017Z,86.76
2018-01-02T11:33:08.339Z,87.23
2018-01-02T11:34:07.859Z,86.94
2018-01-02T11:35:07.926Z,87.13
2018-01-02T11:36:07.988Z,87.52
2018-01-02T11:37:07.864Z,86.57
2018-01-02T11:38:07.935Z,86.18
2018-01-02T11:39:07.916Z,86.57
2018-01-02T11:40:07.872Z,86.76
2018-01-02T11:41:07.896Z,86.18
2018-01-02T11:42:07.884Z,85.99
2018-01-02T11:43:07.894Z,86.57
2018-01-02T11:44:07.916Z,87.32
2018-01-02T11:45:08.026Z,87.23
2018-01-02T11:46:07.977Z,87.52
2018-01-02T11:47:07.974Z,86.66
2018-01-02T11:48:07.913Z,86.18
2018-01-02T11:49:08.011Z,86.09
2018-01-02T11:50:07.925Z,86.09
2018-01-02T11:51:07.960Z,85.52
2018-01-02T11:52:07.884Z,86.18
2018-01-02T11:53:07.950Z,85.61
2018-01-02T11:54:07.978Z,85.80
2018-01-02T11:55:07.939Z,86.18
2018-01-02T11:56:07.891Z,85.61
2018-01-02T11:57:07.911Z,85.42
2018-01-02T11:58:07.919Z,85.99
2018-01-02T11:59:07.975Z,85.52
2018-01-02T12:00:07.922Z,86.18
2018-01-02T12:01:07.922Z,86.47
2018-01-02T12:02:07.908Z,87.32
2018-01-02T12:03:07.895Z,86.38
2018-01-02T12:04:07.934Z,86.47
2018-01-02T12:05:07.923Z,86.47
2018-01-02T12:06:07.921Z,86.47
2018-01-02T12:07:07.921Z,86.66
2018-01-02T12:08:07.914Z,85.99
2018-01-02T12:09:07.922Z,86.28
2018-01-02T12:10:07.903Z,86.76
2018-01-02T12:11:07.909Z,86.66
2018-01-02T12:12:08.101Z,86.38
2018-01-02T12:13:07.926Z,86.85
2018-01-02T12:14:07.923Z,87.13
2018-01-02T12:15:07.918Z,86.76
2018-01-02T12:16:07.921Z,87.42
2018-01-02T12:17:08.070Z,87.71
2018-01-02T12:18:07.923Z,87.71
2018-01-02T12:19:07.919Z,87.23
2018-01-02T12:20:07.928Z,87.52
2018-01-02T12:21:07.935Z,87.32
2018-01-02T12:22:08.895Z,87.04
2018-01-02T12:23:07.930Z,87.90
2018-01-02T12:24:07.978Z,87.37
2018-01-02T12:25:08.002Z,88.23
2018-01-02T12:26:07.964Z,87.61
2018-01-02T12:27:07.966Z,87.61
2018-01-02T12:28:07.956Z,87.56
2018-01-02T12:29:07.959Z,87.42
2018-01-02T12:30:07.932Z,87.42
2018-01-02T12:31:07.944Z,87.13
2018-01-02T12:32:07.935Z,87.23
2018-01-02T12:33:07.981Z,87.52
2018-01-02T12:34:07.954Z,87.42
2018-01-02T12:35:07.957Z,87.04
2018-01-02T12:36:07.948Z,87.99
2018-01-02T12:37:07.953Z,87.90
2018-01-02T12:38:07.993Z,87.71
2018-01-02T12:39:07.979Z,88.09
2018-01-02T12:40:07.996Z,87.71
2018-01-02T12:41:08.004Z,88.56
2018-01-02T12:42:07.950Z,89.23
2018-01-02T12:43:07.954Z,89.99
2018-01-02T12:44:07.953Z,89.04
2018-01-02T12:45:08.025Z,88.75
2018-01-02T12:46:07.993Z,89.04
2018-01-02T12:47:07.991Z,89.04
2018-01-02T12:48:07.982Z,88.75
2018-01-02T12:49:08.018Z,88.94
2018-01-02T12:50:08.009Z,89.51
2018-01-02T12:51:07.956Z,89.14
2018-01-02T12:52:07.993Z,89.32
2018-01-02T12:53:08.039Z,89.61
2018-01-02T12:54:08.143Z,90.18
2018-01-02T12:55:07.980Z,90.84
2018-01-02T12:56:08.041Z,90.28
2018-01-02T12:57:07.986Z,89.32
2018-01-02T12:58:08.013Z,89.04
2018-01-02T12:59:08.025Z,89.61
2018-01-02T13:00:08.004Z,88.94
2018-01-02T13:01:08.105Z,89.61
2018-01-02T13:02:08.026Z,89.61
2018-01-02T13:03:08.028Z,89.61
2018-01-02T13:04:08.010Z,90.28
2018-01-02T13:05:08.016Z,91.03
2018-01-02T13:06:08.097Z,90.18
2018-01-02T13:07:07.986Z,89.70
2018-01-02T13:08:08.015Z,88.66
2018-01-02T13:09:08.031Z,89.70
2018-01-02T13:10:08.013Z,89.89
2018-01-02T13:11:07.985Z,89.51
2018-01-02T13:12:08.000Z,89.42
2018-01-02T13:13:08.000Z,89.80
2018-01-02T13:14:08.000Z,89.14
2018-01-02T13:15:08.018Z,88.94
2018-01-02T13:16:08.011Z,88.66
2018-01-02T13:17:08.007Z,88.94
2018-01-02T13:18:08.018Z,88.56
2018-01-02T13:19:07.999Z,89.42
2018-01-02T13:20:08.010Z,89.14
2018-01-02T13:21:08.010Z,88.75
2018-01-02T13:22:08.923Z,88.94
2018-01-02T13:23:08.020Z,88.56
2018-01-02T13:24:08.012Z,88.75
2018-01-02T13:25:08.011Z,88.75
2018-01-02T13:26:08.028Z,88.56
2018-01-02T13:27:08.045Z,88.28
2018-01-02T13:28:08.018Z,88.28
2018-01-02T13:29:08.019Z,88.09
2018-01-02T13:30:08.926Z,87.99
2018-01-02T13:31:08.058Z,88.94
2018-01-02T13:32:08.147Z,88.18
2018-01-02T13:33:08.019Z,89.04
2018-01-02T13:34:08.156Z,88.46
2018-01-02T13:35:08.030Z,88.46
2018-01-02T13:36:08.025Z,88.18
2018-01-02T13:37:08.127Z,89.04
2018-01-02T13:38:08.038Z,88.46
2018-01-02T13:39:08.021Z,88.46
2018-01-02T13:40:08.144Z,88.56
2018-01-02T13:41:08.061Z,88.46
2018-01-02T13:42:08.045Z,88.56
2018-01-02T13:43:08.045Z,88.28
2018-01-02T13:44:08.048Z,87.99
2018-01-02T13:45:08.062Z,87.80
2018-01-02T13:46:08.049Z,88.28
2018-01-02T13:47:08.031Z,88.94
2018-01-02T13:48:08.067Z,88.28
2018-01-02T13:49:08.042Z,87.23
2018-01-02T13:50:08.135Z,87.61
2018-01-02T13:51:08.055Z,87.42
2018-01-02T13:52:08.070Z,87.61
2018-01-02T13:53:08.044Z,87.61
2018-01-02T13:54:08.050Z,87.23
2018-01-02T13:55:08.044Z,87.42
2018-01-02T13:56:08.055Z,87.32
2018-01-02T13:57:08.051Z,87.13
2018-01-02T13:58:08.073Z,87.42
2018-01-02T13:59:08.059Z,87.42
2018-01-02T14:00:08.057Z,86.76
2018-01-02T14:01:08.068Z,86.57
2018-01-02T14:02:08.064Z,87.13
2018-01-02T14:03:08.923Z,87.32
2018-01-02T14:04:08.072Z,87.23
2018-01-02T14:05:08.076Z,87.52
2018-01-02T14:06:08.119Z,87.42
2018-01-02T14:07:08.083Z,86.76
2018-01-02T14:08:08.077Z,86.47
2018-01-02T14:09:08.070Z,86.66
2018-01-02T14:10:08.058Z,86.57
2018-01-02T14:11:08.058Z,86.38
2018-01-02T14:12:08.057Z,85.42
2018-01-02T14:13:08.171Z,85.80
2018-01-02T14:14:08.066Z,86.09
2018-01-02T14:15:08.070Z,85.71
2018-01-02T14:16:08.066Z,86.09
2018-01-02T14:17:08.087Z,85.42
2018-01-02T14:18:08.117Z,86.18
2018-01-02T14:19:08.082Z,85.52
2018-01-02T14:20:08.102Z,86.18
2018-01-02T14:21:08.086Z,86.85
2018-01-02T14:22:08.107Z,86.66
2018-01-02T14:23:08.079Z,85.80
2018-01-02T14:24:08.076Z,85.42
2018-01-02T14:25:08.094Z,85.61
2018-01-02T14:26:08.307Z,86.57
2018-01-02T14:27:08.076Z,86.85
2018-01-02T14:28:08.099Z,86.38
2018-01-02T14:29:08.097Z,86.28
2018-01-02T14:30:08.092Z,85.90
2018-01-02T14:31:08.119Z,86.18
2018-01-02T14:32:08.125Z,86.18
2018-01-02T14:33:08.087Z,86.28
2018-01-02T14:34:08.085Z,86.94
2018-01-02T14:35:08.093Z,87.61
2018-01-02T14:36:08.110Z,87.04
2018-01-02T14:37:08.163Z,85.52
2018-01-02T14:38:08.124Z,84.95
2018-01-02T14:39:08.095Z,85.42
2018-01-02T14:40:08.097Z,85.80
2018-01-02T14:41:08.100Z,86.09
2018-01-02T14:42:08.114Z,85.99
2018-01-02T14:43:08.116Z,85.52
2018-01-02T14:44:08.260Z,85.99
2018-01-02T14:45:08.109Z,85.61
2018-01-02T14:46:08.150Z,86.18
2018-01-02T14:47:08.144Z,85.52
2018-01-02T14:48:08.118Z,85.42
2018-01-02T14:49:08.148Z,85.71
2018-01-02T14:50:08.137Z,85.52
2018-01-02T14:51:08.116Z,85.71
2018-01-02T14:52:08.137Z,86.18
2018-01-02T14:53:08.137Z,86.28
2018-01-02T14:54:08.171Z,85.90
2018-01-02T14:55:08.139Z,85.52
2018-01-02T14:56:08.162Z,85.42
2018-01-02T14:57:08.135Z,85.24
2018-01-02T14:58:08.191Z,85.71
2018-01-02T14:59:08.147Z,86.18
2018-01-02T15:00:08.121Z,86.66
2018-01-02T15:01:08.124Z,86.38
2018-01-02T15:02:08.177Z,86.52
2018-01-02T15:03:08.127Z,85.86
2018-01-02T15:04:08.208Z,86.61
2018-01-02T15:05:08.194Z,86.71
2018-01-02T15:06:08.145Z,87.09
2018-01-02T15:07:08.194Z,86.90
2018-01-02T15:08:08.439Z,87.57
2018-01-02T15:09:08.267Z,88.42
2018-01-02T15:10:08.368Z,88.42
2018-01-02T15:11:08.219Z,87.19
2018-01-02T15:12:08.285Z,87.85
2018-01-02T15:13:08.263Z,87.47
2018-01-02T15:14:08.275Z,87.19
2018-01-02T15:15:08.307Z,88.13
2018-01-02T15:16:08.321Z,87.38
2018-01-02T15:17:08.211Z,87.19
2018-01-02T15:18:08.228Z,87.47
2018-01-02T15:19:08.164Z,87.47
2018-01-02T15:20:08.199Z,87.66
2018-01-02T15:21:08.183Z,87.38
2018-01-02T15:22:08.218Z,87.28
2018-01-02T15:23:08.301Z,87.76
2018-01-02T15:24:08.174Z,87.38
2018-01-02T15:25:08.942Z,87.76
2018-01-02T15:26:08.188Z,86.80
2018-01-02T15:27:08.209Z,86.90
2018-01-02T15:28:08.289Z,87.19
2018-01-02T15:29:08.147Z,87.19
2018-01-02T15:30:08.242Z,87.28
2018-01-02T15:31:08.302Z,87.38
2018-01-02T15:32:08.229Z,88.04
2018-01-02T15:33:08.199Z,88.33
2018-01-02T15:34:08.164Z,88.23
2018-01-02T15:35:08.186Z,88.33
2018-01-02T15:36:08.198Z,88.80
2018-01-02T15:37:08.156Z,88.04
2018-01-02T15:38:08.188Z,87.47
2018-01-02T15:39:08.163Z,87.19
2018-01-02T15:40:08.189Z,87.76
2018-01-02T15:41:08.450Z,87.47
2018-01-02T15:42:08.154Z,87.47
2018-01-02T15:43:08.220Z,87.47
2018-01-02T15:44:08.160Z,86.90
2018-01-02T15:45:08.231Z,86.99
2018-01-02T15:46:08.220Z,87.09
2018-01-02T15:47:08.226Z,87.28
2018-01-02T15:48:08.211Z,87.38
2018-01-02T15:49:08.216Z,87.38
2018-01-02T15:50:08.230Z,87.76
2018-01-02T15:51:08.161Z,87.28
2018-01-02T15:52:08.245Z,87.57
2018-01-02T15:53:08.223Z,87.47
2018-01-02T15:54:08.167Z,87.24
2018-01-02T15:55:08.267Z,87.95
2018-01-02T15:56:08.190Z,87.95
2018-01-02T15:57:08.190Z,87.76
2018-01-02T15:58:08.237Z,87.38
2018-01-02T15:59:08.209Z,87.47
2018-01-02T16:00:08.199Z,86.80
2018-01-02T16:01:08.170Z,86.90
2018-01-02T16:02:08.175Z,86.90
2018-01-02T16:03:08.203Z,87.09
2018-01-02T16:04:08.203Z,86.71
2018-01-02T16:05:08.262Z,85.86
2018-01-02T16:06:08.264Z,85.95
2018-01-02T16:07:08.169Z,85.95
2018-01-02T16:08:08.306Z,86.14
2018-01-02T16:09:08.204Z,85.86
2018-01-02T16:10:08.230Z,85.66
2018-01-02T16:11:08.955Z,86.24
2018-01-02T16:12:08.345Z,86.05
2018-01-02T16:13:08.204Z,85.86
2018-01-02T16:14:08.248Z,86.14
2018-01-02T16:15:08.297Z,86.05
2018-01-02T16:16:08.272Z,86.05
2018-01-02T16:17:08.209Z,86.05
2018-01-02T16:18:08.264Z,86.05
2018-01-02T16:19:08.225Z,86.43
2018-01-02T16:20:08.221Z,86.61
2018-01-02T16:21:08.211Z,86.61
2018-01-02T16:22:08.181Z,86.52
2018-01-02T16:23:08.217Z,85.95
2018-01-02T16:24:08.242Z,85.66
2018-01-02T16:25:08.996Z,85.76
2018-01-02T16:26:08.274Z,86.14
2018-01-02T16:27:08.177Z,85.66
2018-01-02T16:28:08.378Z,86.05
2018-01-02T16:29:08.246Z,86.14
2018-01-02T16:30:08.319Z,86.14
2018-01-02T16:31:08.436Z,86.05
2018-01-02T16:32:08.444Z,86.24
2018-01-02T16:33:08.249Z,85.76
2018-01-02T16:34:08.312Z,85.66
2018-01-02T16:35:08.260Z,85.57
2018-01-02T16:36:08.187Z,85.57
2018-01-02T16:37:08.183Z,85.57
2018-01-02T16:38:08.184Z,85.28
2018-01-02T16:39:10.912Z,85.19
2018-01-02T16:40:08.189Z,85.38
2018-01-02T16:41:08.968Z,85.10
2018-01-02T16:42:08.387Z,85.28
2018-01-02T16:43:08.287Z,85.15
2018-01-02T16:44:08.203Z,85.19
2018-01-02T16:45:08.246Z,85.34
2018-01-02T16:46:08.235Z,84.95
2018-01-02T16:47:08.295Z,85.53
2018-01-02T16:48:08.227Z,85.15
2018-01-02T16:49:08.255Z,85.05
2018-01-02T16:50:08.264Z,85.19
2018-01-02T16:51:08.234Z,85.28
2018-01-02T16:52:08.189Z,85.34
2018-01-02T16:53:08.227Z,85.34
2018-01-02T16:54:08.247Z,85.34
2018-01-02T16:55:08.246Z,85.66
2018-01-02T16:56:08.215Z,85.38
2018-01-02T16:57:08.196Z,84.62
2018-01-02T16:58:08.222Z,84.95
2018-01-02T16:59:08.574Z,84.81
2018-01-02T17:00:08.237Z,84.58
2018-01-02T17:01:08.247Z,84.58
2018-01-02T17:02:08.260Z,84.58
2018-01-02T17:03:08.209Z,84.91
2018-01-02T17:04:08.195Z,85.00
2018-01-02T17:05:08.204Z,84.58
2018-01-02T17:06:08.219Z,84.81
2018-01-02T17:07:08.208Z,84.91
2018-01-02T17:08:08.220Z,85.15
2018-01-02T17:09:08.969Z,85.34
2018-01-02T17:10:08.206Z,85.15
2018-01-02T17:11:08.207Z,85.19
2018-01-02T17:12:08.278Z,84.77
2018-01-02T17:13:08.273Z,84.58
2018-01-02T17:14:08.296Z,84.67
2018-01-02T17:15:08.253Z,84.58
2018-01-02T17:16:08.206Z,84.01
2018-01-02T17:17:08.299Z,84.10
2018-01-02T17:18:08.284Z,84.77
2018-01-02T17:19:08.236Z,84.39
2018-01-02T17:20:08.201Z,85.24
2018-01-02T17:21:08.206Z,85.24
2018-01-02T17:22:08.979Z,84.58
2018-01-02T17:23:08.215Z,84.86
2018-01-02T17:24:08.201Z,84.67
2018-01-02T17:25:08.258Z,84.58
2018-01-02T17:26:08.234Z,84.48
2018-01-02T17:27:08.239Z,83.72
2018-01-02T17:28:08.202Z,83.72
2018-01-02T17:29:08.228Z,83.82
2018-01-02T17:30:08.224Z,84.67
2018-01-02T17:31:08.212Z,83.62
2018-01-02T17:32:08.220Z,83.82
2018-01-02T17:33:08.278Z,84.01
2018-01-02T17:34:08.206Z,83.91
2018-01-02T17:35:08.255Z,84.01
2018-01-02T17:36:08.259Z,83.72
2018-01-02T17:37:08.217Z,83.91
2018-01-02T17:38:08.238Z,83.72
2018-01-02T17:39:08.258Z,83.91
2018-01-02T17:40:08.255Z,83.72
2018-01-02T17:41:08.274Z,83.72
2018-01-02T17:42:08.213Z,83.53
2018-01-02T17:43:08.213Z,84.10
2018-01-02T17:44:08.223Z,83.44
2018-01-02T17:45:08.217Z,83.72
2018-01-02T17:46:08.378Z,83.44
2018-01-02T17:47:08.241Z,83.15
2018-01-02T17:48:08.362Z,82.68
2018-01-02T17:49:08.216Z,82.77
2018-01-02T17:50:08.219Z,83.44
2018-01-02T17:51:08.238Z,83.34
2018-01-02T17:52:08.246Z,83.72
2018-01-02T17:53:08.442Z,83.44
2018-01-02T17:54:08.222Z,83.62
2018-01-02T17:55:08.228Z,83.62
2018-01-02T17:56:08.225Z,83.25
2018-01-02T17:57:08.239Z,82.58
2018-01-02T17:58:08.248Z,82.68
2018-01-02T17:59:08.229Z,82.77
2018-01-02T18:00:08.224Z,82.96
2018-01-02T18:01:08.221Z,82.87
2018-01-02T18:02:08.254Z,82.96
2018-01-02T18:03:08.262Z,82.96
2018-01-02T18:04:08.212Z,82.58
2018-01-02T18:05:08.230Z,82.96
2018-01-02T18:06:08.221Z,82.77
2018-01-02T18:07:08.234Z,82.96
2018-01-02T18:08:08.220Z,82.49
2018-01-02T18:09:08.234Z,82.68
2018-01-02T18:10:08.231Z,82.68
2018-01-02T18:11:08.223Z,82.29
2018-01-02T18:12:08.263Z,82.49
2018-01-02T18:13:08.243Z,82.58
2018-01-02T18:14:08.256Z,82.29
2018-01-02T18:15:08.224Z,82.29
2018-01-02T18:16:08.227Z,82.20
2018-01-02T18:17:08.235Z,82.20
2018-01-02T18:18:08.239Z,82.20
2018-01-02T18:19:08.235Z,83.06
2018-01-02T18:20:08.241Z,82.87
2018-01-02T18:21:08.222Z,82.77
2018-01-02T18:22:08.223Z,82.68
2018-01-02T18:23:08.242Z,83.15
2018-01-02T18:24:08.241Z,82.87
2018-01-02T18:25:08.282Z,82.39
2018-01-02T18:26:08.242Z,82.58
2018-01-02T18:27:08.239Z,82.87
2018-01-02T18:28:08.269Z,82.77
2018-01-02T18:29:08.258Z,82.58
2018-01-02T18:30:08.300Z,82.01
2018-01-02T18:31:08.239Z,82.68
2018-01-02T18:32:08.322Z,82.58
2018-01-02T18:33:08.236Z,82.29
2018-01-02T18:34:08.237Z,82.39
2018-01-02T18:35:08.239Z,82.39
2018-01-02T18:36:08.290Z,82.39
2018-01-02T18:37:08.264Z,82.49
2018-01-02T18:38:08.235Z,82.29
2018-01-02T18:39:08.236Z,82.58
2018-01-02T18:40:08.234Z,82.49
2018-01-02T18:41:08.272Z,82.96
2018-01-02T18:42:08.232Z,82.87
2018-01-02T18:43:08.260Z,82.43
2018-01-02T18:44:08.227Z,82.96
2018-01-02T18:45:08.281Z,82.77
2018-01-02T18:46:08.263Z,82.68
2018-01-02T18:47:08.258Z,82.87
2018-01-02T18:48:08.258Z,83.06
2018-01-02T18:49:08.246Z,82.01
2018-01-02T18:50:08.989Z,82.20
2018-01-02T18:51:08.324Z,82.49
2018-01-02T18:52:08.237Z,82.29
2018-01-02T18:53:08.247Z,82.49
2018-01-02T18:54:08.277Z,82.58
2018-01-02T18:55:08.234Z,82.87
2018-01-02T18:56:08.246Z,82.39
2018-01-02T18:57:08.240Z,82.01
2018-01-02T18:58:08.256Z,82.77
2018-01-02T18:59:08.247Z,82.01
2018-01-02T19:00:08.282Z,82.39
2018-01-02T19:01:08.241Z,82.49
2018-01-02T19:02:08.241Z,82.01
2018-01-02T19:03:08.240Z,82.20
2018-01-02T19:04:08.265Z,82.58
2018-01-02T19:05:08.241Z,82.58
2018-01-02T19:06:08.257Z,82.58
2018-01-02T19:07:08.273Z,83.15
2018-01-02T19:08:08.287Z,82.20
2018-01-02T19:09:08.245Z,82.10
2018-01-02T19:10:08.247Z,82.01
2018-01-02T19:11:08.244Z,82.87
2018-01-02T19:12:08.240Z,82.58
2018-01-02T19:13:08.271Z,83.34
2018-01-02T19:14:08.267Z,83.06
2018-01-02T19:15:08.241Z,82.87
2018-01-02T19:16:08.256Z,83.34
2018-01-02T19:17:08.249Z,82.77
2018-01-02T19:18:08.262Z,82.77
2018-01-02T19:19:08.270Z,82.87
2018-01-02T19:20:08.270Z,82.96
2018-01-02T19:21:08.257Z,82.96
2018-01-02T19:22:08.275Z,82.68
2018-01-02T19:23:08.248Z,82.68
2018-01-02T19:24:08.257Z,83.34
2018-01-02T19:25:09.003Z,82.77
2018-01-02T19:26:08.247Z,83.44
2018-01-02T19:27:08.254Z,83.72
2018-01-02T19:28:08.263Z,83.25
2018-01-02T19:29:08.257Z,83.34
2018-01-02T19:30:08.250Z,83.44
2018-01-02T19:31:08.264Z,82.77
2018-01-02T19:32:08.259Z,82.58
2018-01-02T19:33:08.256Z,83.15
2018-01-02T19:34:08.257Z,83.34
2018-01-02T19:35:08.256Z,82.68
2018-01-02T19:36:08.249Z,82.96
2018-01-02T19:37:08.254Z,82.77
2018-01-02T19:38:08.280Z,82.96
2018-01-02T19:39:08.254Z,82.77
2018-01-02T19:40:08.294Z,82.87
2018-01-02T19:41:08.284Z,82.58
2018-01-02T19:42:08.258Z,82.87
2018-01-02T19:43:08.257Z,83.06
2018-01-02T19:44:08.255Z,82.77
2018-01-02T19:45:08.277Z,82.87
2018-01-02T19:46:08.263Z,82.87
2018-01-02T19:47:08.264Z,82.87
2018-01-02T19:48:08.271Z,82.49
2018-01-02T19:49:08.266Z,82.68
2018-01-02T19:50:08.291Z,82.39
2018-01-02T19:51:08.277Z,83.06
2018-01-02T19:52:08.267Z,82.68
2018-01-02T19:53:08.264Z,83.39
2018-01-02T19:54:08.262Z,83.95
2018-01-02T19:55:08.284Z,83.72
2018-01-02T19:56:08.261Z,84.67
2018-01-02T19:57:08.260Z,84.58
2018-01-02T19:58:08.266Z,84.86
2018-01-02T19:59:08.283Z,84.77
2018-01-02T20:00:08.284Z,84.91
2018-01-02T20:01:08.275Z,84.91
2018-01-02T20:02:08.266Z,85.10
2018-01-02T20:03:08.323Z,85.00
2018-01-02T20:04:08.282Z,85.10
2018-01-02T20:05:08.286Z,85.53
2018-01-02T20:06:08.277Z,85.47
2018-01-02T20:07:08.275Z,84.95
2018-01-02T20:08:08.296Z,85.38
2018-01-02T20:09:08.318Z,85.28
2018-01-02T20:10:08.274Z,84.62
2018-01-02T20:11:08.275Z,84.67
2018-01-02T20:12:08.293Z,85.34
2018-01-02T20:13:08.319Z,85.34
2018-01-02T20:14:08.271Z,85.15
2018-01-02T20:15:08.276Z,85.34
2018-01-02T20:16:08.275Z,85.43
2018-01-02T20:17:08.268Z,85.91
2018-01-02T20:18:08.282Z,85.62
2018-01-02T20:19:08.275Z,85.62
2018-01-02T20:20:08.282Z,86.19
2018-01-02T20:21:08.283Z,85.62
2018-01-02T20:22:08.281Z,86.38
2018-01-02T20:23:09.016Z,86.19
2018-01-02T20:24:08.280Z,86.95
2018-01-02T20:25:08.281Z,87.34
2018-01-02T20:26:08.282Z,87.71
2018-01-02T20:27:08.281Z,87.43
2018-01-02T20:28:09.013Z,88.28
2018-01-02T20:29:08.303Z,87.71
2018-01-02T20:30:08.284Z,88.19
2018-01-02T20:31:08.284Z,88.38
2018-01-02T20:32:08.282Z,89.14
2018-01-02T20:33:08.288Z,88.57
2018-01-02T20:34:08.280Z,88.67
2018-01-02T20:35:08.290Z,89.33
2018-01-02T20:36:08.283Z,89.61
2018-01-02T20:37:08.280Z,89.52
2018-01-02T20:38:08.287Z,90.28
2018-01-02T20:39:08.289Z,90.56
2018-01-02T20:40:08.290Z,90.66
2018-01-02T20:41:09.015Z,90.56
2018-01-02T20:42:08.289Z,90.85
2018-01-02T20:43:08.282Z,90.56
2018-01-02T20:44:08.294Z,90.85
2018-01-02T20:45:08.299Z,91.80
2018-01-02T20:46:08.315Z,90.37
2018-01-02T20:47:08.320Z,91.33
2018-01-02T20:48:08.281Z,91.42
2018-01-02T20:49:08.281Z,91.42
2018-01-02T20:50:08.288Z,91.33
2018-01-02T20:51:08.285Z,91.42
2018-01-02T20:52:08.295Z,91.52
2018-01-02T20:53:08.297Z,91.99
2018-01-02T20:54:09.025Z,91.71
2018-01-02T20:55:08.286Z,92.56
2018-01-02T20:56:08.286Z,92.66
2018-01-02T20:57:09.020Z,93.23
2018-01-02T20:58:08.292Z,93.23
2018-01-02T20:59:08.357Z,92.94
2018-01-02T21:00:08.306Z,93.70
2018-01-02T21:01:08.302Z,93.41
2018-01-02T21:02:08.292Z,94.27
2018-01-02T21:03:08.308Z,93.99
2018-01-02T21:04:08.292Z,94.08
2018-01-02T21:05:08.289Z,93.89
2018-01-02T21:06:08.296Z,93.60
2018-01-02T21:07:08.389Z,93.60
2018-01-02T21:08:08.315Z,94.56
2018-01-02T21:09:08.286Z,93.99
2018-01-02T21:10:08.296Z,94.93
2018-01-02T21:11:08.303Z,94.98
2018-01-02T21:12:08.283Z,94.89
2018-01-02T21:13:08.294Z,95.17
2018-01-02T21:14:08.297Z,95.08
2018-01-02T21:15:08.296Z,95.46
2018-01-02T21:16:08.332Z,94.79
2018-01-02T21:17:08.297Z,94.98
2018-01-02T21:18:08.290Z,95.17
2018-01-02T21:19:08.294Z,95.08
2018-01-02T21:20:08.318Z,94.93
2018-01-02T21:21:08.306Z,94.79
2018-01-02T21:22:08.293Z,95.75
2018-01-02T21:23:08.296Z,95.46
2018-01-02T21:24:08.286Z,95.98
2018-01-02T21:25:08.294Z,95.46
2018-01-02T21:26:08.293Z,95.46
2018-01-02T21:27:08.302Z,95.12
2018-01-02T21:28:08.292Z,94.93
2018-01-02T21:29:08.291Z,94.89
2018-01-02T21:30:08.310Z,95.08
2018-01-02T21:31:08.355Z,94.79
2018-01-02T21:32:08.299Z,94.60
2018-01-02T21:33:08.313Z,94.98
2018-01-02T21:34:08.301Z,95.17
2018-01-02T21:35:08.324Z,95.65
2018-01-02T21:36:08.286Z,96.03
2018-01-02T21:37:08.289Z,96.03
2018-01-02T21:38:08.300Z,96.12
2018-01-02T21:39:08.311Z,95.08
2018-01-02T21:40:08.292Z,95.46
2018-01-02T21:41:08.300Z,95.36
2018-01-02T21:42:08.315Z,95.27
2018-01-02T21:43:08.291Z,95.75
2018-01-02T21:44:08.291Z,95.46
2018-01-02T21:45:08.328Z,95.65
2018-01-02T21:46:08.298Z,95.17
2018-01-02T21:47:08.326Z,94.60
2018-01-02T21:48:08.411Z,94.60
2018-01-02T21:49:08.318Z,94.93
2018-01-02T21:50:08.330Z,94.56
2018-01-02T21:51:08.323Z,94.32
2018-01-02T21:52:08.310Z,94.32
2018-01-02T21:53:08.321Z,94.79
2018-01-02T21:54:08.293Z,94.51
2018-01-02T21:55:08.333Z,95.03
2018-01-02T21:56:08.307Z,94.37
2018-01-02T21:57:08.303Z,94.60
2018-01-02T21:58:08.293Z,95.03
2018-01-02T21:59:08.307Z,94.74
2018-01-02T22:00:08.319Z,94.84
2018-01-02T22:01:09.033Z,95.22
2018-01-02T22:02:08.292Z,95.79
2018-01-02T22:03:08.317Z,96.08
2018-01-02T22:04:08.303Z,95.70
2018-01-02T22:05:08.306Z,96.74
2018-01-02T22:06:08.303Z,96.55
2018-01-02T22:07:08.329Z,96.93
2018-01-02T22:08:08.304Z,97.22
2018-01-02T22:09:08.331Z,97.03
2018-01-02T22:10:08.296Z,97.12
2018-01-02T22:11:08.341Z,97.03
2018-01-02T22:12:08.327Z,96.93
2018-01-02T22:13:08.325Z,96.65
2018-01-02T22:14:08.390Z,96.74
2018-01-02T22:15:08.310Z,96.74
2018-01-02T22:16:08.297Z,96.17
2018-01-02T22:17:08.292Z,96.26
2018-01-02T22:18:08.297Z,96.55
2018-01-02T22:19:09.039Z,96.26
2018-01-02T22:20:08.294Z,95.70
2018-01-02T22:21:08.323Z,95.79
2018-01-02T22:22:08.344Z,95.60
2018-01-02T22:23:08.321Z,96.08
2018-01-02T22:24:08.301Z,95.98
2018-01-02T22:25:08.289Z,96.08
2018-01-02T22:26:08.314Z,95.60
2018-01-02T22:27:08.317Z,95.60
2018-01-02T22:28:08.307Z,95.70
2018-01-02T22:29:08.301Z,95.79
2018-01-02T22:30:08.307Z,95.22
2018-01-02T22:31:08.295Z,94.93
2018-01-02T22:32:08.304Z,94.74
2018-01-02T22:33:08.295Z,95.12
2018-01-02T22:34:08.299Z,95.32
2018-01-02T22:35:08.315Z,94.93
2018-01-02T22:36:08.300Z,94.08
2018-01-02T22:37:08.319Z,94.74
2018-01-02T22:38:08.302Z,94.46
2018-01-02T22:39:08.333Z,94.56
2018-01-02T22:40:08.307Z,94.46
2018-01-02T22:41:08.329Z,94.37
2018-01-02T22:42:08.297Z,94.46
2018-01-02T22:43:08.300Z,94.18
2018-01-02T22:44:08.320Z,94.56
2018-01-02T22:45:08.318Z,94.27
2018-01-02T22:46:08.298Z,93.60
2018-01-02T22:47:08.302Z,94.08
2018-01-02T22:48:08.315Z,94.18
2018-01-02T22:49:08.311Z,94.08
2018-01-02T22:50:08.322Z,94.37
2018-01-02T22:51:08.297Z,94.08
2018-01-02T22:52:08.313Z,94.27
2018-01-02T22:53:08.328Z,94.27
2018-01-02T22:54:08.300Z,94.37
2018-01-02T22:55:08.416Z,94.37
2018-01-02T22:56:08.315Z,94.18
2018-01-02T22:57:08.347Z,94.65
2018-01-02T22:58:08.303Z,95.22
2018-01-02T22:59:08.303Z,95.70
2018-01-02T23:00:08.340Z,95.70
2018-01-02T23:01:08.334Z,94.93
2018-01-02T23:02:08.373Z,95.51
2018-01-02T23:03:08.318Z,95.12
2018-01-02T23:04:08.312Z,95.36
2018-01-02T23:05:08.303Z,95.46
2018-01-02T23:06:08.302Z,95.65
2018-01-02T23:07:08.306Z,95.84
2018-01-02T23:08:08.341Z,95.75
2018-01-02T23:09:08.306Z,95.17
2018-01-02T23:10:08.307Z,95.56
2018-01-02T23:11:08.306Z,95.70